Time;durP1;ratioP1;P1;durP2;ratioP2;P2;SDS_P1;SDS_P2;PMS_P1;PMS_P2;Temp;Humidity;BMP_temperature;BMP_pressure;BME280_temperature;BME280_humidity;BME280_pressure;Samples;Min_cycle;Max_cycle;Signal;HPM_P1;HPM_P2
2022/12/11 00:00:21;;;;;;;79.25;24.27;;;;;;;;;;5057527;28;20048;-71
2022/12/11 00:02:48;;;;;;;84.32;25.50;;;;;;;;;;5066099;28;20152;-71
2022/12/11 00:05:14;;;;;;;87.60;24.58;;;;;;;;;;5074830;28;20056;-71
2022/12/11 00:07:40;;;;;;;79.53;23.10;;;;;;;;;;5066020;28;20521;-71
2022/12/11 00:10:08;;;;;;;74.05;23.90;;;;;;;;;;5063296;28;20517;-72
2022/12/11 00:12:34;;;;;;;80.72;26.13;;;;;;;;;;5064186;28;20503;-71
2022/12/11 00:15:00;;;;;;;80.30;23.15;;;;;;;;;;5064590;28;20049;-71
2022/12/11 00:17:27;;;;;;;76.53;24.00;;;;;;;;;;5062849;28;20057;-71
2022/12/11 00:19:53;;;;;;;82.97;25.17;;;;;;;;;;5064035;28;20371;-71
2022/12/11 00:22:19;;;;;;;74.15;25.10;;;;;;;;;;5062809;28;20049;-72
2022/12/11 00:24:46;;;;;;;80.03;24.30;;;;;;;;;;5064259;28;20053;-71
2022/12/11 00:27:12;;;;;;;79.13;24.38;;;;;;;;;;5063958;28;20057;-72
2022/12/11 00:29:38;;;;;;;77.38;23.52;;;;;;;;;;5062197;28;20578;-71
2022/12/11 00:32:05;;;;;;;72.70;24.40;;;;;;;;;;5064430;28;20061;-71
2022/12/11 00:34:31;;;;;;;80.05;25.70;;;;;;;;;;5063149;28;20063;-71
2022/12/11 00:36:58;;;;;;;84.38;26.23;;;;;;;;;;5062527;28;20053;-72
2022/12/11 00:39:24;;;;;;;76.53;23.70;;;;;;;;;;5062093;28;20140;-70
2022/12/11 00:41:50;;;;;;;77.00;24.33;;;;;;;;;;5063205;28;20052;-71
2022/12/11 00:44:17;;;;;;;94.50;25.38;;;;;;;;;;5071736;28;20603;-71
2022/12/11 00:46:43;;;;;;;78.53;25.00;;;;;;;;;;5062802;28;20049;-71
2022/12/11 00:49:09;;;;;;;71.05;23.92;;;;;;;;;;5055829;28;20548;-71
2022/12/11 00:51:36;;;;;;;81.45;24.13;;;;;;;;;;5056189;28;20591;-71
2022/12/11 00:54:03;;;;;;;72.10;24.02;;;;;;;;;;5075307;28;20049;-72
2022/12/11 00:56:29;;;;;;;85.15;23.92;;;;;;;;;;5043312;28;20053;-71
2022/12/11 00:58:56;;;;;;;72.68;23.75;;;;;;;;;;5044640;28;20057;-71
2022/12/11 01:01:24;;;;;;;85.40;25.35;;;;;;;;;;5063388;28;20057;-71
2022/12/11 01:03:50;;;;;;;70.78;23.20;;;;;;;;;;5063256;28;20045;-71
2022/12/11 01:06:18;;;;;;;73.72;23.77;;;;;;;;;;5062441;28;20511;-71
2022/12/11 01:08:46;;;;;;;81.82;24.55;;;;;;;;;;5061822;28;20049;-71
2022/12/11 01:11:13;;;;;;;81.88;23.92;;;;;;;;;;5062872;28;20060;-71
2022/12/11 01:13:40;;;;;;;79.90;23.98;;;;;;;;;;5055249;28;20123;-71
2022/12/11 01:16:11;;;;;;;77.25;26.55;;;;;;;;;;5062952;28;20052;-71
2022/12/11 01:18:37;;;;;;;86.60;27.35;;;;;;;;;;5063600;28;20056;-71
2022/12/11 01:21:08;;;;;;;90.28;27.80;;;;;;;;;;5052504;28;20488;-71
2022/12/11 01:23:34;;;;;;;91.68;27.60;;;;;;;;;;5043267;28;20044;-71
2022/12/11 01:26:19;;;;;;;78.53;24.52;;;;;;;;;;5046700;28;20100;-71
2022/12/11 01:28:48;;;;;;;83.45;25.38;;;;;;;;;;5043040;28;20439;-71
2022/12/11 01:31:15;;;;;;;77.93;25.42;;;;;;;;;;5056991;28;20080;-71
2022/12/11 01:33:42;;;;;;;87.93;28.10;;;;;;;;;;5043011;28;20054;-71
2022/12/11 01:36:10;;;;;;;84.05;26.13;;;;;;;;;;5057190;28;20966;-71
2022/12/11 01:38:37;;;;;;;91.35;26.08;;;;;;;;;;5061969;28;20115;-71
2022/12/11 01:41:03;;;;;;;82.45;25.15;;;;;;;;;;5066389;28;20813;-71
2022/12/11 01:43:29;;;;;;;90.60;26.05;;;;;;;;;;5061575;28;20482;-71
2022/12/11 01:45:56;;;;;;;94.70;27.70;;;;;;;;;;5062946;28;20049;-70
2022/12/11 01:48:24;;;;;;;96.65;27.00;;;;;;;;;;5060566;28;20045;-71
2022/12/11 01:51:03;;;;;;;81.70;25.90;;;;;;;;;;5063960;28;20056;-71
2022/12/11 01:53:32;;;;;;;89.68;26.45;;;;;;;;;;5065413;28;20044;-71
2022/12/11 01:55:59;;;;;;;97.38;28.33;;;;;;;;;;5062328;28;20171;-70
2022/12/11 01:58:28;;;;;;;84.40;27.85;;;;;;;;;;5061546;28;20151;-70
2022/12/11 02:00:55;;;;;;;84.00;26.60;;;;;;;;;;5056930;28;20095;-71
2022/12/11 02:03:21;;;;;;;86.85;27.70;;;;;;;;;;5060378;28;20053;-70
2022/12/11 02:05:48;;;;;;;95.65;29.45;;;;;;;;;;5056853;28;20085;-70
2022/12/11 02:08:15;;;;;;;95.20;27.35;;;;;;;;;;5059564;28;20056;-70
2022/12/11 02:10:52;;;;;;;83.20;27.00;;;;;;;;;;5059460;28;20523;-70
2022/12/11 02:13:32;;;;;;;88.60;26.27;;;;;;;;;;5062243;28;20191;-71
2022/12/11 02:16:05;;;;;;;84.47;27.05;;;;;;;;;;5053510;28;20061;-71
2022/12/11 02:18:37;;;;;;;83.30;24.83;;;;;;;;;;5060819;28;20060;-70
2022/12/11 02:21:22;;;;;;;87.55;27.63;;;;;;;;;;5062949;28;20059;-70
2022/12/11 02:24:01;;;;;;;90.25;27.60;;;;;;;;;;5060326;28;20151;-70
2022/12/11 02:26:30;;;;;;;82.82;27.70;;;;;;;;;;5059811;28;20465;-71
2022/12/11 02:28:58;;;;;;;71.65;24.42;;;;;;;;;;5061516;28;20084;-70
2022/12/11 02:31:43;;;;;;;77.30;26.23;;;;;;;;;;5063239;28;20526;-71
2022/12/11 02:34:17;;;;;;;83.78;27.75;;;;;;;;;;5046177;28;20057;-70
2022/12/11 02:36:47;;;;;;;77.28;27.20;;;;;;;;;;5050717;28;20552;-71
2022/12/11 02:39:14;;;;;;;76.15;25.63;;;;;;;;;;5055319;28;20052;-71
2022/12/11 02:41:42;;;;;;;86.15;27.05;;;;;;;;;;5067368;28;20661;-71
2022/12/11 02:44:11;;;;;;;77.57;27.20;;;;;;;;;;5049452;28;20051;-71
2022/12/11 02:46:38;;;;;;;81.60;27.75;;;;;;;;;;5066654;28;20060;-71
2022/12/11 02:49:05;;;;;;;66.22;25.88;;;;;;;;;;5052585;28;20115;-71
2022/12/11 02:51:35;;;;;;;70.80;24.30;;;;;;;;;;5061341;28;20103;-71
2022/12/11 02:54:01;;;;;;;71.68;27.13;;;;;;;;;;5065095;28;20053;-71
2022/12/11 02:56:31;;;;;;;85.13;26.58;;;;;;;;;;5064017;28;20084;-70
2022/12/11 02:59:05;;;;;;;78.95;27.40;;;;;;;;;;5045218;28;20050;-70
2022/12/11 03:01:31;;;;;;;77.43;26.70;;;;;;;;;;5051661;28;20053;-70
2022/12/11 03:03:58;;;;;;;68.88;24.85;;;;;;;;;;5049196;28;20106;-70
2022/12/11 03:06:28;;;;;;;76.07;26.80;;;;;;;;;;5062990;28;20053;-71
2022/12/11 03:08:54;;;;;;;65.10;25.23;;;;;;;;;;5067619;28;20057;-70
2022/12/11 03:11:20;;;;;;;67.35;27.15;;;;;;;;;;5069077;28;20565;-71
2022/12/11 03:13:47;;;;;;;69.35;25.25;;;;;;;;;;5073691;28;20053;-71
2022/12/11 03:16:18;;;;;;;74.18;26.80;;;;;;;;;;5064249;28;20045;-71
2022/12/11 03:19:07;;;;;;;66.97;25.83;;;;;;;;;;5063860;28;20056;-71
2022/12/11 03:21:37;;;;;;;64.82;25.25;;;;;;;;;;5045016;28;20049;-70
2022/12/11 03:24:12;;;;;;;69.40;25.02;;;;;;;;;;5058475;28;20049;-71
2022/12/11 03:26:42;;;;;;;64.47;24.48;;;;;;;;;;5062461;28;20053;-70
2022/12/11 03:29:15;;;;;;;62.08;22.88;;;;;;;;;;5064589;28;20499;-70
2022/12/11 03:31:49;;;;;;;60.28;22.50;;;;;;;;;;5055240;28;20052;-71
2022/12/11 03:34:25;;;;;;;68.13;25.83;;;;;;;;;;5059600;28;20053;-70
2022/12/11 03:36:52;;;;;;;;;;;;;;;;;;5063981;28;20554;-70
2022/12/11 03:39:21;;;;;;;55.97;23.52;;;;;;;;;;5047963;28;41815;-70
2022/12/11 03:41:49;;;;;;;50.20;21.55;;;;;;;;;;5066577;28;20048;-70
2022/12/11 03:44:17;;;;;;;61.60;22.58;;;;;;;;;;5064318;28;20637;-70
2022/12/11 03:46:45;;;;;;;61.70;24.02;;;;;;;;;;5062795;28;20057;-70
2022/12/11 03:49:15;;;;;;;45.90;21.27;;;;;;;;;;5051222;28;20514;-70
2022/12/11 03:51:43;;;;;;;53.80;23.13;;;;;;;;;;5064115;28;20045;-70
2022/12/11 03:54:10;;;;;;;56.97;23.35;;;;;;;;;;5060497;28;20507;-73
2022/12/11 03:56:37;;;;;;;53.38;24.58;;;;;;;;;;5054596;28;20055;-70
2022/12/11 03:59:03;;;;;;;53.40;23.13;;;;;;;;;;5044153;28;20063;-71
2022/12/11 04:01:30;;;;;;;50.80;23.50;;;;;;;;;;5056986;28;20052;-70
2022/12/11 04:03:56;;;;;;;51.78;22.73;;;;;;;;;;5063958;28;20147;-70
2022/12/11 04:06:22;;;;;;;56.90;24.75;;;;;;;;;;5059040;28;20057;-71
2022/12/11 04:08:49;;;;;;;50.95;24.13;;;;;;;;;;5060337;28;20049;-70
2022/12/11 04:11:33;;;;;;;52.80;23.20;;;;;;;;;;5044367;28;20095;-71
2022/12/11 04:16:49;;;;;;;47.97;22.15;;;;;;;;;;5064444;28;20144;-70
2022/12/11 04:24:49;;;;;;;53.63;22.98;;;;;;;;;;5053788;28;20296;-70
2022/12/11 04:27:47;;;;;;;43.10;22.25;;;;;;;;;;5057830;28;20071;-70
2022/12/11 04:30:05;;;;;;;43.83;20.70;;;;;;;;;;5051116;28;20056;-70
2022/12/11 04:32:32;;;;;;;45.75;21.38;;;;;;;;;;5044119;28;20064;-71
2022/12/11 04:34:58;;;;;;;49.42;21.98;;;;;;;;;;5056738;28;20114;-70
2022/12/11 04:37:25;;;;;;;41.22;19.15;;;;;;;;;;5047824;28;20045;-70
2022/12/11 04:39:52;;;;;;;36.17;18.27;;;;;;;;;;5058882;28;20049;-70
2022/12/11 04:42:18;;;;;;;36.05;18.40;;;;;;;;;;5045887;28;20056;-70
2022/12/11 04:44:44;;;;;;;35.60;17.90;;;;;;;;;;5043426;28;20212;-71
2022/12/11 04:47:11;;;;;;;34.78;17.80;;;;;;;;;;5044098;28;20054;-70
2022/12/11 04:49:38;;;;;;;37.33;19.95;;;;;;;;;;5043996;28;20065;-70
2022/12/11 04:52:04;;;;;;;37.85;19.38;;;;;;;;;;5049495;28;20624;-71
2022/12/11 04:54:31;;;;;;;39.25;19.60;;;;;;;;;;5057279;28;20616;-70
2022/12/11 04:56:57;;;;;;;37.03;19.38;;;;;;;;;;5065535;28;20134;-70
2022/12/11 04:59:24;;;;;;;43.30;20.20;;;;;;;;;;5061840;28;20060;-70
2022/12/11 05:01:50;;;;;;;38.60;19.08;;;;;;;;;;5060163;28;20568;-71
2022/12/11 05:04:16;;;;;;;34.10;18.48;;;;;;;;;;5042917;28;20068;-71
2022/12/11 05:06:43;;;;;;;37.10;20.52;;;;;;;;;;5061586;28;21070;-70
2022/12/11 05:09:10;;;;;;;33.90;18.75;;;;;;;;;;5063859;28;20172;-70
2022/12/11 05:11:37;;;;;;;46.85;20.02;;;;;;;;;;5046166;28;20155;-70
2022/12/11 05:14:03;;;;;;;43.45;21.58;;;;;;;;;;5056961;28;20530;-71
2022/12/11 05:16:30;;;;;;;37.53;18.98;;;;;;;;;;5048470;28;20630;-71
2022/12/11 05:18:56;;;;;;;36.42;18.27;;;;;;;;;;5057783;28;20553;-70
2022/12/11 05:21:22;;;;;;;34.83;19.85;;;;;;;;;;5061047;28;20056;-70
2022/12/11 05:23:49;;;;;;;36.50;19.40;;;;;;;;;;5049179;28;20173;-71
2022/12/11 05:26:16;;;;;;;38.13;18.98;;;;;;;;;;5044081;28;20045;-70
2022/12/11 05:28:43;;;;;;;36.72;19.30;;;;;;;;;;5062919;28;20507;-70
2022/12/11 05:31:17;;;;;;;37.47;19.27;;;;;;;;;;5058879;28;20128;-70
2022/12/11 05:33:44;;;;;;;42.25;20.15;;;;;;;;;;5044413;28;20057;-70
2022/12/11 05:36:24;;;;;;;35.53;17.55;;;;;;;;;;5060965;28;20982;-70
2022/12/11 05:38:51;;;;;;;33.95;18.48;;;;;;;;;;5056200;28;20041;-70
2022/12/11 05:41:19;;;;;;;33.35;18.08;;;;;;;;;;5055664;28;20057;-71
2022/12/11 05:43:46;;;;;;;33.35;19.05;;;;;;;;;;5046990;28;20476;-71
2022/12/11 05:46:19;;;;;;;34.72;18.85;;;;;;;;;;5063281;28;20049;-70
2022/12/11 05:48:48;;;;;;;36.03;18.80;;;;;;;;;;5052191;28;20049;-70
2022/12/11 05:51:15;;;;;;;35.25;18.42;;;;;;;;;;5057196;28;20048;-70
2022/12/11 05:53:42;;;;;;;34.15;17.50;;;;;;;;;;5043280;28;20053;-70
2022/12/11 05:56:12;;;;;;;36.92;17.88;;;;;;;;;;5046706;28;20466;-70
2022/12/11 05:58:39;;;;;;;32.35;17.65;;;;;;;;;;5062168;28;20041;-70
2022/12/11 06:01:07;;;;;;;36.20;18.05;;;;;;;;;;5062700;28;20057;-70
2022/12/11 06:03:33;;;;;;;31.20;17.90;;;;;;;;;;5047208;28;20045;-70
2022/12/11 06:06:06;;;;;;;33.40;16.65;;;;;;;;;;5061628;28;20052;-70
2022/12/11 06:08:32;;;;;;;35.42;16.90;;;;;;;;;;5063050;28;20057;-70
2022/12/11 06:10:59;;;;;;;35.15;18.77;;;;;;;;;;5065017;28;20573;-70
2022/12/11 06:13:25;;;;;;;39.03;19.13;;;;;;;;;;5061984;28;20041;-70
2022/12/11 06:15:51;;;;;;;34.03;17.80;;;;;;;;;;5046597;28;20160;-70
2022/12/11 06:18:18;;;;;;;38.08;18.00;;;;;;;;;;5059451;28;20055;-70
2022/12/11 06:20:44;;;;;;;36.05;18.67;;;;;;;;;;5060439;28;20049;-70
2022/12/11 06:23:11;;;;;;;34.03;15.85;;;;;;;;;;5042529;28;20135;-70
2022/12/11 06:25:38;;;;;;;34.65;18.20;;;;;;;;;;5042669;28;20132;-70
2022/12/11 06:28:04;;;;;;;35.33;17.92;;;;;;;;;;5043448;28;20049;-70
2022/12/11 06:30:31;;;;;;;34.58;17.33;;;;;;;;;;5052026;28;20057;-70
2022/12/11 06:33:05;;;;;;;32.60;16.98;;;;;;;;;;5065716;28;20049;-70
2022/12/11 06:35:31;;;;;;;37.67;17.90;;;;;;;;;;5046475;28;20115;-70
2022/12/11 06:38:05;;;;;;;35.72;16.77;;;;;;;;;;5060375;28;20045;-70
2022/12/11 06:40:31;;;;;;;37.40;17.75;;;;;;;;;;5052336;28;20064;-70
2022/12/11 06:42:58;;;;;;;34.03;18.60;;;;;;;;;;5048138;28;20045;-70
2022/12/11 06:45:24;;;;;;;38.22;18.98;;;;;;;;;;5044986;28;20434;-71
2022/12/11 06:47:50;;;;;;;32.10;16.88;;;;;;;;;;5057639;28;20154;-70
2022/12/11 06:50:17;;;;;;;32.33;16.73;;;;;;;;;;5056218;28;20541;-70
2022/12/11 06:52:43;;;;;;;35.40;17.25;;;;;;;;;;5062998;28;20060;-70
2022/12/11 06:55:09;;;;;;;35.42;15.82;;;;;;;;;;5053749;28;20077;-71
2022/12/11 06:57:36;;;;;;;33.17;16.95;;;;;;;;;;5046587;28;20083;-70
2022/12/11 07:00:03;;;;;;;34.65;17.48;;;;;;;;;;5049127;28;20593;-70
2022/12/11 07:02:29;;;;;;;39.25;17.48;;;;;;;;;;5057250;28;20079;-71
2022/12/11 07:04:55;;;;;;;33.13;16.60;;;;;;;;;;5046237;28;20045;-70
2022/12/11 07:07:22;;;;;;;35.55;17.85;;;;;;;;;;5057193;28;20057;-70
2022/12/11 07:09:48;;;;;;;32.55;15.48;;;;;;;;;;5058659;28;20053;-71
2022/12/11 07:12:15;;;;;;;32.10;16.30;;;;;;;;;;5053590;28;20053;-70
2022/12/11 07:14:42;;;;;;;33.47;17.23;;;;;;;;;;5054866;28;20068;-71
2022/12/11 07:17:08;;;;;;;34.67;17.88;;;;;;;;;;5061303;28;20057;-70
2022/12/11 07:19:35;;;;;;;36.90;18.38;;;;;;;;;;5046943;28;20424;-70
2022/12/11 07:22:01;;;;;;;35.45;17.48;;;;;;;;;;5044801;28;20049;-70
2022/12/11 07:24:28;;;;;;;38.30;19.08;;;;;;;;;;5060604;28;20061;-70
2022/12/11 07:26:54;;;;;;;42.65;20.30;;;;;;;;;;5056897;28;20506;-69
2022/12/11 07:29:20;;;;;;;37.20;18.83;;;;;;;;;;5059133;28;20052;-70
2022/12/11 07:31:47;;;;;;;37.85;19.83;;;;;;;;;;5049803;28;20517;-70
2022/12/11 07:34:13;;;;;;;35.85;18.98;;;;;;;;;;5049478;28;20057;-70
2022/12/11 07:36:40;;;;;;;41.00;19.55;;;;;;;;;;5065084;28;20057;-70
2022/12/11 07:39:07;;;;;;;42.60;19.35;;;;;;;;;;5045921;28;20483;-70
2022/12/11 07:41:34;;;;;;;44.00;20.15;;;;;;;;;;5058675;28;20053;-70
2022/12/11 07:44:01;;;;;;;41.55;19.35;;;;;;;;;;5053692;28;21000;-69
2022/12/11 07:46:28;;;;;;;40.42;19.85;;;;;;;;;;5044618;28;20144;-70
2022/12/11 07:48:55;;;;;;;40.30;19.77;;;;;;;;;;5052858;28;20063;-70
2022/12/11 07:51:25;;;;;;;44.78;19.67;;;;;;;;;;5059258;28;20049;-70
2022/12/11 07:53:52;;;;;;;39.25;19.75;;;;;;;;;;5061135;28;20057;-70
2022/12/11 07:56:18;;;;;;;39.85;20.65;;;;;;;;;;5061607;28;20053;-70
2022/12/11 07:58:45;;;;;;;44.05;19.95;;;;;;;;;;5062037;28;20064;-70
2022/12/11 08:01:12;;;;;;;38.20;19.23;;;;;;;;;;5057346;28;20055;-70
2022/12/11 08:03:39;;;;;;;38.88;19.13;;;;;;;;;;5047318;28;20156;-70
2022/12/11 08:06:05;;;;;;;40.80;18.67;;;;;;;;;;5050282;28;20045;-69
2022/12/11 08:08:32;;;;;;;38.90;19.08;;;;;;;;;;5043027;28;20053;-70
2022/12/11 08:11:02;;;;;;;41.92;19.15;;;;;;;;;;5056126;28;20481;-70
2022/12/11 08:13:28;;;;;;;38.65;18.58;;;;;;;;;;5056439;28;20063;-70
2022/12/11 08:15:55;;;;;;;37.58;19.38;;;;;;;;;;5060191;28;20061;-70
2022/12/11 08:18:21;;;;;;;40.08;21.02;;;;;;;;;;5063967;28;20507;-70
2022/12/11 08:20:47;;;;;;;38.25;19.73;;;;;;;;;;5060414;28;20502;-70
2022/12/11 08:23:14;;;;;;;41.58;19.88;;;;;;;;;;5055702;28;20511;-70
2022/12/11 08:25:40;;;;;;;39.15;20.40;;;;;;;;;;5061987;28;20553;-70
2022/12/11 08:28:06;;;;;;;35.88;18.75;;;;;;;;;;5056380;28;20045;-71
2022/12/11 08:30:32;;;;;;;37.20;20.05;;;;;;;;;;5059882;28;21506;-70
2022/12/11 08:32:59;;;;;;;37.85;20.58;;;;;;;;;;5047599;28;20101;-72
2022/12/11 08:35:25;;;;;;;36.83;20.10;;;;;;;;;;5063125;28;20053;-71
2022/12/11 08:37:52;;;;;;;39.42;20.58;;;;;;;;;;5045178;28;20053;-70
2022/12/11 08:40:19;;;;;;;45.47;20.42;;;;;;;;;;5050518;28;20060;-70
2022/12/11 08:42:45;;;;;;;38.58;19.98;;;;;;;;;;5045810;28;20790;-70
2022/12/11 08:45:11;;;;;;;33.47;19.08;;;;;;;;;;5043921;28;20054;-71
2022/12/11 08:47:38;;;;;;;35.95;19.98;;;;;;;;;;5061005;28;20049;-71
2022/12/11 08:50:05;;;;;;;38.75;20.42;;;;;;;;;;5063626;28;20047;-70
2022/12/11 08:52:33;;;;;;;35.17;19.55;;;;;;;;;;5062161;28;20132;-70
2022/12/11 08:54:59;;;;;;;39.28;20.98;;;;;;;;;;5060336;28;20049;-70
2022/12/11 08:57:26;;;;;;;40.42;19.80;;;;;;;;;;5062689;28;20515;-70
2022/12/11 08:59:53;;;;;;;38.33;20.60;;;;;;;;;;5054360;28;20065;-70
2022/12/11 09:02:19;;;;;;;37.53;20.70;;;;;;;;;;5057531;28;20060;-70
2022/12/11 09:04:45;;;;;;;36.85;20.45;;;;;;;;;;5044353;28;20049;-70
2022/12/11 09:07:11;;;;;;;39.88;20.70;;;;;;;;;;5057144;28;20046;-69
2022/12/11 09:09:38;;;;;;;40.25;19.92;;;;;;;;;;5047994;28;20068;-70
2022/12/11 09:12:04;;;;;;;39.70;19.90;;;;;;;;;;5043997;28;20869;-70
2022/12/11 09:14:31;;;;;;;39.17;20.77;;;;;;;;;;5046562;28;20323;-70
2022/12/11 09:16:57;;;;;;;38.53;20.42;;;;;;;;;;5044771;28;20042;-70
2022/12/11 09:19:23;;;;;;;39.20;20.17;;;;;;;;;;5049866;28;20075;-70
2022/12/11 09:21:57;;;;;;;34.88;18.95;;;;;;;;;;5052499;28;20534;-73
2022/12/11 09:24:23;;;;;;;38.55;20.25;;;;;;;;;;5043092;28;20052;-73
2022/12/11 09:26:50;;;;;;;34.15;19.23;;;;;;;;;;5042612;28;20552;-70
2022/12/11 09:29:16;;;;;;;34.30;17.83;;;;;;;;;;5056510;28;20049;-71
2022/12/11 09:31:42;;;;;;;35.42;18.60;;;;;;;;;;5054087;28;20058;-72
2022/12/11 09:34:11;;;;;;;38.30;19.92;;;;;;;;;;5052056;28;20051;-70
2022/12/11 09:36:38;;;;;;;34.38;18.88;;;;;;;;;;5049328;28;20049;-70
2022/12/11 09:39:07;;;;;;;34.75;19.05;;;;;;;;;;5055013;28;20567;-70
2022/12/11 09:41:46;;;;;;;34.65;18.58;;;;;;;;;;5050381;28;20049;-70
2022/12/11 09:44:28;;;;;;;35.35;18.70;;;;;;;;;;5050473;28;20049;-71
2022/12/11 09:46:55;;;;;;;32.42;16.90;;;;;;;;;;5058019;28;20523;-72
2022/12/11 09:49:28;;;;;;;37.38;18.75;;;;;;;;;;5053289;28;20061;-70
2022/12/11 09:52:13;;;;;;;33.22;17.77;;;;;;;;;;5074930;28;20578;-70
2022/12/11 09:54:53;;;;;;;36.17;17.52;;;;;;;;;;5077639;28;20586;-70
2022/12/11 09:57:19;;;;;;;34.03;17.88;;;;;;;;;;5060435;28;20483;-70
2022/12/11 10:00:04;;;;;;;32.53;17.00;;;;;;;;;;5061269;28;20053;-70
2022/12/11 10:02:37;;;;;;;34.20;17.63;;;;;;;;;;5058826;28;20060;-72
2022/12/11 10:05:03;;;;;;;36.80;18.95;;;;;;;;;;5058286;28;20051;-70
2022/12/11 10:07:33;;;;;;;32.70;16.83;;;;;;;;;;5044007;28;20495;-70
2022/12/11 10:10:02;;;;;;;34.05;18.73;;;;;;;;;;5062648;28;20052;-70
2022/12/11 10:12:32;;;;;;;34.28;17.60;;;;;;;;;;5050702;28;20515;-70
2022/12/11 10:14:58;;;;;;;35.67;18.42;;;;;;;;;;5047671;28;20141;-70
2022/12/11 10:17:29;;;;;;;31.58;17.42;;;;;;;;;;5050882;28;20057;-70
2022/12/11 10:19:57;;;;;;;31.73;17.38;;;;;;;;;;5048422;28;20049;-70
2022/12/11 10:22:26;;;;;;;28.20;16.75;;;;;;;;;;5059170;28;20474;-71
2022/12/11 10:24:59;;;;;;;32.33;17.05;;;;;;;;;;5060994;28;20057;-70
2022/12/11 10:27:42;;;;;;;31.35;17.75;;;;;;;;;;5042924;28;20060;-72
2022/12/11 10:30:12;;;;;;;29.05;17.38;;;;;;;;;;5050389;28;20445;-70
2022/12/11 10:32:47;;;;;;;33.10;18.67;;;;;;;;;;5049910;28;20049;-72
2022/12/11 10:35:22;;;;;;;31.70;17.55;;;;;;;;;;5049441;28;20054;-72
2022/12/11 10:37:49;;;;;;;34.35;18.60;;;;;;;;;;5056664;28;20513;-70
2022/12/11 10:40:17;;;;;;;32.92;18.60;;;;;;;;;;5048784;28;21373;-72
2022/12/11 10:42:51;;;;;;;32.33;18.10;;;;;;;;;;5048274;28;20151;-70
2022/12/11 10:45:17;;;;;;;30.52;17.48;;;;;;;;;;5057248;28;20052;-70
2022/12/11 10:47:44;;;;;;;36.58;17.52;;;;;;;;;;5059982;28;20491;-70
2022/12/11 10:50:21;;;;;;;30.70;17.10;;;;;;;;;;5046106;28;20049;-72
2022/12/11 10:52:48;;;;;;;30.73;17.17;;;;;;;;;;5055198;28;20045;-72
2022/12/11 10:55:26;;;;;;;31.38;16.88;;;;;;;;;;5054415;28;20053;-72
2022/12/11 10:57:53;;;;;;;31.67;17.27;;;;;;;;;;5060232;28;20519;-71
2022/12/11 11:00:31;;;;;;;32.17;17.13;;;;;;;;;;5042034;28;20054;-71
2022/12/11 11:02:58;;;;;;;31.15;17.90;;;;;;;;;;5058615;28;20049;-69
2022/12/11 11:05:33;;;;;;;29.90;17.92;;;;;;;;;;5059383;28;20624;-69
2022/12/11 11:08:11;;;;;;;27.63;14.15;;;;;;;;;;5084755;28;20384;-69
2022/12/11 11:10:48;;;;;;;28.83;16.42;;;;;;;;;;5058123;28;20056;-68
2022/12/11 11:13:14;;;;;;;31.52;17.17;;;;;;;;;;5045466;28;20163;-71
2022/12/11 11:15:41;;;;;;;28.48;15.25;;;;;;;;;;5045575;28;20107;-68
2022/12/11 11:18:21;;;;;;;29.08;16.17;;;;;;;;;;5046814;28;20068;-69
2022/12/11 11:20:47;;;;;;;28.75;15.35;;;;;;;;;;5063612;28;20053;-69
2022/12/11 11:23:14;;;;;;;29.13;16.08;;;;;;;;;;5065483;28;20554;-69
2022/12/11 11:25:49;;;;;;;28.70;15.30;;;;;;;;;;5048717;28;20561;-70
2022/12/11 11:28:20;;;;;;;28.75;16.63;;;;;;;;;;5045314;28;20586;-68
2022/12/11 11:30:57;;;;;;;32.88;15.88;;;;;;;;;;5046619;28;20511;-68
2022/12/11 11:33:24;;;;;;;27.73;16.02;;;;;;;;;;5049493;28;20052;-70
2022/12/11 11:35:55;;;;;;;30.20;16.23;;;;;;;;;;5064763;28;20051;-69
2022/12/11 11:38:25;;;;;;;27.67;15.48;;;;;;;;;;5048625;28;20056;-68
2022/12/11 11:40:51;;;;;;;28.38;15.38;;;;;;;;;;5049696;28;20064;-69
2022/12/11 11:43:21;;;;;;;28.15;15.95;;;;;;;;;;5058623;28;20055;-68
2022/12/11 11:45:52;;;;;;;24.92;15.20;;;;;;;;;;5064209;28;20123;-69
2022/12/11 11:48:24;;;;;;;28.65;15.40;;;;;;;;;;5061963;28;20152;-69
2022/12/11 11:50:52;;;;;;;25.73;16.20;;;;;;;;;;5057121;28;20140;-69
2022/12/11 11:53:30;;;;;;;27.65;14.98;;;;;;;;;;5046261;28;20519;-69
2022/12/11 11:56:02;;;;;;;28.25;15.68;;;;;;;;;;5051972;28;20144;-68
2022/12/11 11:58:41;;;;;;;26.45;15.63;;;;;;;;;;5058545;28;20515;-69
2022/12/11 12:01:15;;;;;;;28.35;14.98;;;;;;;;;;5065400;28;20057;-69
2022/12/11 12:03:41;;;;;;;31.52;16.08;;;;;;;;;;5063286;28;20053;-69
2022/12/11 12:06:17;;;;;;;30.33;15.63;;;;;;;;;;5065213;28;20049;-68
2022/12/11 12:08:50;;;;;;;25.17;13.07;;;;;;;;;;5062049;28;20079;-69
2022/12/11 12:11:29;;;;;;;26.00;13.35;;;;;;;;;;5064708;28;20531;-69
2022/12/11 12:14:14;;;;;;;27.17;14.13;;;;;;;;;;5050560;28;20152;-68
2022/12/11 12:17:24;;;;;;;25.90;14.43;;;;;;;;;;5046805;28;20057;-68
2022/12/11 12:19:56;;;;;;;23.27;12.52;;;;;;;;;;5053232;28;20130;-68
2022/12/11 12:22:33;;;;;;;22.75;14.00;;;;;;;;;;5064407;28;20053;-68
2022/12/11 12:25:13;;;;;;;27.10;14.52;;;;;;;;;;5061949;28;20107;-68
2022/12/11 12:28:06;;;;;;;23.30;13.93;;;;;;;;;;5054764;28;20136;-68
2022/12/11 12:30:53;;;;;;;25.40;13.32;;;;;;;;;;5041353;28;20564;-68
2022/12/11 12:33:43;;;;;;;27.83;13.88;;;;;;;;;;5058562;28;20049;-68
2022/12/11 12:36:12;;;;;;;23.60;12.57;;;;;;;;;;4962529;28;20062;-68
2022/12/11 12:38:52;;;;;;;22.02;12.68;;;;;;;;;;4982084;28;20058;-68
2022/12/11 12:41:21;;;;;;;24.48;13.60;;;;;;;;;;4973455;28;20059;-68
2022/12/11 12:44:01;;;;;;;25.33;13.70;;;;;;;;;;4962205;28;20569;-68
2022/12/11 12:46:47;;;;;;;28.05;13.10;;;;;;;;;;4965753;28;20564;-68
2022/12/11 12:49:22;;;;;;;24.60;13.25;;;;;;;;;;4978897;28;20051;-68
2022/12/11 12:51:50;;;;;;;27.60;14.80;;;;;;;;;;4963005;28;20055;-68
2022/12/11 12:54:17;;;;;;;25.65;13.73;;;;;;;;;;4981403;28;20066;-69
2022/12/11 12:56:45;;;;;;;27.30;14.68;;;;;;;;;;4981510;28;20061;-68
2022/12/11 12:59:19;;;;;;;30.30;14.82;;;;;;;;;;4963819;28;20059;-69
2022/12/11 13:01:47;;;;;;;28.63;14.13;;;;;;;;;;4962328;28;20098;-69
2022/12/11 13:04:28;;;;;;;27.67;15.30;;;;;;;;;;4962426;28;20056;-68
2022/12/11 13:07:19;;;;;;;27.65;14.23;;;;;;;;;;4968622;28;20059;-68
2022/12/11 13:09:59;;;;;;;30.25;14.60;;;;;;;;;;4970906;28;20069;-69
2022/12/11 13:12:31;;;;;;;29.33;15.02;;;;;;;;;;4982990;28;20049;-71
2022/12/11 13:14:58;;;;;;;27.60;14.73;;;;;;;;;;5046790;28;20057;-70
2022/12/11 13:17:33;;;;;;;28.35;16.88;;;;;;;;;;5060739;28;20506;-71
2022/12/11 13:20:13;;;;;;;28.42;15.55;;;;;;;;;;5083998;28;20053;-71
2022/12/11 13:22:52;;;;;;;31.70;15.35;;;;;;;;;;5062675;28;20054;-71
2022/12/11 13:25:29;;;;;;;30.33;15.20;;;;;;;;;;5061757;28;20052;-71
2022/12/11 13:28:18;;;;;;;28.27;14.75;;;;;;;;;;5062965;28;20061;-70
2022/12/11 13:30:55;;;;;;;26.52;14.55;;;;;;;;;;5049921;28;20053;-68
2022/12/11 13:33:23;;;;;;;30.88;16.33;;;;;;;;;;5048793;28;20042;-69
2022/12/11 13:36:24;;;;;;;32.13;15.75;;;;;;;;;;5043366;28;20515;-68
2022/12/11 13:38:53;;;;;;;30.33;14.77;;;;;;;;;;5006127;28;20054;-68
2022/12/11 13:41:20;;;;;;;27.55;14.65;;;;;;;;;;5017126;28;20054;-69
2022/12/11 13:43:47;;;;;;;32.90;15.68;;;;;;;;;;5009500;28;20496;-69
2022/12/11 13:46:18;;;;;;;30.58;15.65;;;;;;;;;;5011149;28;20050;-67
2022/12/11 13:48:49;;;;;;;26.77;15.18;;;;;;;;;;5010196;28;20050;-68
2022/12/11 13:51:17;;;;;;;27.25;14.10;;;;;;;;;;5014690;28;20054;-69
2022/12/11 13:53:44;;;;;;;31.00;15.48;;;;;;;;;;5019184;28;20655;-67
2022/12/11 13:56:17;;;;;;;29.58;15.60;;;;;;;;;;5016158;28;20402;-67
2022/12/11 13:58:44;;;;;;;30.70;14.65;;;;;;;;;;5006036;28;20046;-67
2022/12/11 14:01:21;;;;;;;34.53;17.55;;;;;;;;;;5014330;28;20960;-67
2022/12/11 14:03:55;;;;;;;33.53;15.98;;;;;;;;;;5015782;28;20620;-67
2022/12/11 14:06:22;;;;;;;34.55;16.10;;;;;;;;;;5006439;28;20508;-68
2022/12/11 14:08:52;;;;;;;33.47;17.23;;;;;;;;;;5017013;28;20936;-68
2022/12/11 14:11:23;;;;;;;33.22;16.42;;;;;;;;;;4992720;28;20128;-65
2022/12/11 14:13:50;;;;;;;35.08;18.15;;;;;;;;;;5045795;28;20430;-67
2022/12/11 14:16:21;;;;;;;31.67;16.48;;;;;;;;;;5058013;28;20060;-67
2022/12/11 14:18:48;;;;;;;30.95;16.17;;;;;;;;;;5063210;28;20056;-68
2022/12/11 14:21:19;;;;;;;33.38;16.00;;;;;;;;;;5062159;28;20487;-68
2022/12/11 14:23:53;;;;;;;34.35;16.70;;;;;;;;;;5060642;28;20053;-67
2022/12/11 14:26:22;;;;;;;35.63;16.90;;;;;;;;;;5062094;28;20049;-68
2022/12/11 14:28:48;;;;;;;27.13;14.95;;;;;;;;;;5060538;28;20053;-67
2022/12/11 14:31:17;;;;;;;35.75;18.65;;;;;;;;;;5061408;28;20103;-68
2022/12/11 14:33:46;;;;;;;34.55;16.73;;;;;;;;;;5055393;28;20053;-67
2022/12/11 14:36:14;;;;;;;38.17;18.48;;;;;;;;;;5043395;28;20049;-68
2022/12/11 14:38:46;;;;;;;31.83;17.00;;;;;;;;;;5046048;28;20527;-67
2022/12/11 14:41:15;;;;;;;35.13;17.88;;;;;;;;;;5060148;28;20063;-67